createdAt,value
2018-09-22T00:00:09.925Z,101997.38
2018-09-22T00:01:10.275Z,101998.17
2018-09-22T00:02:10.464Z,101999.64
2018-09-22T00:03:10.795Z,102000.61
2018-09-22T00:04:11.039Z,102001.06
2018-09-22T00:05:11.252Z,102001.91
2018-09-22T00:06:10.445Z,102002.03
2018-09-22T00:07:11.724Z,102003.16
2018-09-22T00:08:12.152Z,102004.18
2018-09-22T00:09:12.336Z,102005.40
2018-09-22T00:10:12.604Z,102006.08
2018-09-22T00:11:12.855Z,102007.62
2018-09-22T00:12:13.104Z,102008.59
2018-09-22T00:13:13.338Z,102009.47
2018-09-22T00:14:14.030Z,102009.50
2018-09-22T00:15:14.749Z,102010.22
2018-09-22T00:16:15.012Z,102010.59
2018-09-22T00:17:15.374Z,102011.66
2018-09-22T00:17:23.700Z,102021.72
2018-09-22T00:18:25.142Z,102021.67
2018-09-22T00:19:25.392Z,102021.76
2018-09-22T00:20:25.753Z,102022.43
2018-09-22T00:21:25.883Z,102023.65
2018-09-22T00:22:26.142Z,102024.61
2018-09-22T00:23:26.280Z,102025.38
2018-09-22T00:24:26.605Z,102025.77
2018-09-22T00:25:26.933Z,102026.05
2018-09-22T00:26:27.932Z,102027.02
2018-09-22T00:27:28.249Z,102027.08
2018-09-22T00:28:28.440Z,102027.22
2018-09-22T00:29:28.675Z,102028.44
2018-09-22T00:30:28.960Z,102028.84
2018-09-22T00:31:29.138Z,102029.77
2018-09-22T00:32:29.434Z,102030.70
2018-09-22T00:33:29.722Z,102031.52
2018-09-22T00:34:29.863Z,102032.30
2018-09-22T00:35:30.188Z,102033.45
2018-09-22T00:36:30.509Z,102033.97
2018-09-22T00:37:30.740Z,102035.29
2018-09-22T00:38:31.020Z,102035.77
2018-09-22T00:39:31.270Z,102036.87
2018-09-22T00:40:31.500Z,102038.20
2018-09-22T00:41:31.677Z,102038.99
2018-09-22T00:42:32.077Z,102039.52
2018-09-22T00:43:32.374Z,102040.40
2018-09-22T00:44:32.609Z,102040.84
2018-09-22T00:45:32.793Z,102041.39
2018-09-22T00:46:33.035Z,102041.67
2018-09-22T00:47:33.312Z,102041.95
2018-09-22T00:48:33.560Z,102043.16
2018-09-22T00:49:33.891Z,102044.13
2018-09-22T00:50:34.212Z,102045.03
2018-09-22T00:51:34.606Z,102045.73
2018-09-22T00:52:34.838Z,102046.72
2018-09-22T00:53:35.079Z,102047.45
2018-09-22T00:54:35.367Z,102048.41
2018-09-22T00:55:35.666Z,102049.37
2018-09-22T00:56:36.234Z,102050.08
2018-09-22T00:57:36.577Z,102050.70
2018-09-22T00:58:36.851Z,102051.14
2018-09-22T00:58:45.299Z,102068.88
2018-09-22T00:59:46.519Z,102068.48
2018-09-22T01:00:46.690Z,102068.38
2018-09-22T01:01:46.893Z,102067.64
2018-09-22T01:02:47.096Z,102067.55
2018-09-22T01:03:47.389Z,102067.05
2018-09-22T01:04:47.826Z,102067.41
2018-09-22T01:05:48.021Z,102067.33
2018-09-22T01:06:48.262Z,102067.02
2018-09-22T01:07:48.572Z,102066.84
2018-09-22T01:08:48.801Z,102066.45
2018-09-22T01:09:48.992Z,102066.14
2018-09-22T01:10:49.241Z,102066.65
2018-09-22T01:11:49.750Z,102066.65
2018-09-22T01:12:50.066Z,102065.97
2018-09-22T01:13:50.302Z,102066.02
2018-09-22T01:14:50.454Z,102065.86
2018-09-22T01:15:50.768Z,102065.06
2018-09-22T01:16:50.543Z,102065.23
2018-09-22T01:17:51.854Z,102064.05
2018-09-22T01:18:52.132Z,102064.03
2018-09-22T01:19:52.348Z,102063.60
2018-09-22T01:20:52.774Z,102062.67
2018-09-22T01:21:53.306Z,102062.59
2018-09-22T01:22:53.610Z,102062.73
2018-09-22T01:23:53.940Z,102062.73
2018-09-22T01:24:54.271Z,102062.45
2018-09-22T01:25:54.615Z,102062.34
2018-09-22T01:26:55.109Z,102061.04
2018-09-22T01:27:55.646Z,102061.02
2018-09-22T01:28:55.933Z,102060.91
2018-09-22T01:29:56.187Z,102061.44
2018-09-22T01:30:56.372Z,102061.86
2018-09-22T01:31:56.607Z,102062.01
2018-09-22T01:32:56.820Z,102062.57
2018-09-22T01:33:57.060Z,102063.30
2018-09-22T01:34:57.264Z,102064.04
2018-09-22T01:35:57.454Z,102063.36
2018-09-22T01:36:57.660Z,102064.27
2018-09-22T01:37:58.262Z,102065.84
2018-09-22T01:38:58.559Z,102067.17
2018-09-22T01:39:58.786Z,102068.36
2018-09-22T01:40:59.018Z,102068.95
2018-09-22T01:41:58.219Z,102069.68
2018-09-22T01:42:59.531Z,102070.52
2018-09-22T01:43:59.760Z,102072.22
2018-09-22T01:45:00.054Z,102073.57
2018-09-22T01:45:59.234Z,102075.20
2018-09-22T01:46:07.275Z,102096.65
2018-09-22T01:47:08.521Z,102096.22
2018-09-22T01:48:08.750Z,102096.90
2018-09-22T01:49:08.997Z,102097.35
2018-09-22T01:50:09.209Z,102097.34
2018-09-22T01:51:09.457Z,102097.72
2018-09-22T01:52:09.718Z,102098.47
2018-09-22T01:53:08.989Z,102099.18
2018-09-22T01:54:10.204Z,102100.39
2018-09-22T01:55:10.416Z,102101.27
2018-09-22T01:56:10.704Z,102102.05
2018-09-22T01:57:10.927Z,102102.67
2018-09-22T01:58:11.173Z,102103.77
2018-09-22T01:59:11.389Z,102104.06
2018-09-22T02:00:11.701Z,102104.51
2018-09-22T02:01:12.537Z,102105.27
2018-09-22T02:02:12.713Z,102106.48
2018-09-22T02:03:12.886Z,102107.55
2018-09-22T02:04:13.161Z,102109.17
2018-09-22T02:05:13.434Z,102110.42
2018-09-22T02:06:14.268Z,102111.41
2018-09-22T02:07:14.421Z,102112.78
2018-09-22T02:08:15.223Z,102113.45
2018-09-22T02:09:15.572Z,102114.09
2018-09-22T02:10:15.776Z,102114.60
2018-09-22T02:11:16.140Z,102115.07
2018-09-22T02:12:16.387Z,102114.95
2018-09-22T02:13:16.675Z,102115.84
2018-09-22T02:14:16.980Z,102116.24
2018-09-22T02:15:17.203Z,102116.20
2018-09-22T02:16:17.426Z,102116.23
2018-09-22T02:17:17.700Z,102116.12
2018-09-22T02:18:18.053Z,102116.56
2018-09-22T02:19:18.553Z,102116.70
2018-09-22T02:20:18.765Z,102116.75
2018-09-22T02:21:18.990Z,102116.60
2018-09-22T02:22:19.181Z,102116.74
2018-09-22T02:23:19.433Z,102116.59
2018-09-22T02:24:19.844Z,102116.39
2018-09-22T02:25:20.265Z,102116.76
2018-09-22T02:26:20.467Z,102117.13
2018-09-22T02:27:20.610Z,102118.08
2018-09-22T02:28:20.800Z,102117.98
2018-09-22T02:29:20.991Z,102117.67
2018-09-22T02:29:29.037Z,102114.91
2018-09-22T02:30:30.186Z,102114.48
2018-09-22T02:31:30.394Z,102114.31
2018-09-22T02:32:30.555Z,102114.65
2018-09-22T02:33:30.915Z,102114.39
2018-09-22T02:34:31.149Z,102114.56
2018-09-22T02:35:31.552Z,102115.49
2018-09-22T02:36:31.865Z,102115.92
2018-09-22T02:37:32.167Z,102117.16
2018-09-22T02:38:32.439Z,102117.10
2018-09-22T02:39:32.634Z,102117.83
2018-09-22T02:40:32.851Z,102118.17
2018-09-22T02:41:33.099Z,102118.77
2018-09-22T02:42:33.289Z,102118.84
2018-09-22T02:43:33.644Z,102118.94
2018-09-22T02:44:33.839Z,102119.42
2018-09-22T02:45:34.053Z,102119.67
2018-09-22T02:46:34.277Z,102119.98
2018-09-22T02:47:34.527Z,102120.58
2018-09-22T02:48:34.837Z,102120.66
2018-09-22T02:49:35.102Z,102121.65
2018-09-22T02:50:35.363Z,102122.33
2018-09-22T02:51:35.729Z,102122.98
2018-09-22T02:52:36.201Z,102124.56
2018-09-22T02:53:36.559Z,102126.17
2018-09-22T02:54:36.838Z,102127.66
2018-09-22T02:55:37.118Z,102128.42
2018-09-22T02:56:37.344Z,102129.19
2018-09-22T02:57:37.598Z,102130.26
2018-09-22T02:58:38.483Z,102131.19
2018-09-22T02:59:38.677Z,102132.55
2018-09-22T03:00:38.940Z,102133.73
2018-09-22T03:01:39.229Z,102134.15
2018-09-22T03:02:39.428Z,102135.16
2018-09-22T03:03:39.650Z,102135.19
2018-09-22T03:04:40.051Z,102135.70
2018-09-22T03:05:40.301Z,102135.88
2018-09-22T03:06:40.579Z,102135.95
2018-09-22T03:07:39.720Z,102135.70
2018-09-22T03:08:41.042Z,102135.81
2018-09-22T03:09:40.159Z,102136.03
2018-09-22T03:10:40.520Z,102136.38
2018-09-22T03:11:42.333Z,102136.20
2018-09-22T03:12:42.530Z,102135.53
2018-09-22T03:13:42.764Z,102134.97
2018-09-22T03:13:51.090Z,102131.95
2018-09-22T03:14:52.362Z,102131.53
2018-09-22T03:15:53.211Z,102131.48
2018-09-22T03:16:53.653Z,102131.81
2018-09-22T03:17:53.985Z,102131.48
2018-09-22T03:18:54.373Z,102131.48
2018-09-22T03:19:54.723Z,102131.30
2018-09-22T03:20:55.172Z,102131.14
2018-09-22T03:21:55.404Z,102131.28
2018-09-22T03:22:55.783Z,102131.36
2018-09-22T03:23:56.150Z,102131.95
2018-09-22T03:24:56.402Z,102132.13
2018-09-22T03:25:56.621Z,102132.02
2018-09-22T03:26:56.845Z,102132.27
2018-09-22T03:27:57.035Z,102132.69
2018-09-22T03:28:57.240Z,102133.03
2018-09-22T03:29:57.624Z,102133.11
2018-09-22T03:30:57.906Z,102132.80
2018-09-22T03:31:58.366Z,102132.71
2018-09-22T03:32:58.549Z,102132.71
2018-09-22T03:33:57.759Z,102132.49
2018-09-22T03:34:59.257Z,102132.15
2018-09-22T03:35:59.424Z,102131.33
2018-09-22T03:36:59.957Z,102131.16
2018-09-22T03:38:00.224Z,102130.51
2018-09-22T03:39:00.479Z,102130.34
2018-09-22T03:40:00.836Z,102130.28
2018-09-22T03:41:00.987Z,102130.30
2018-09-22T03:42:01.405Z,102130.25
2018-09-22T03:43:01.774Z,102129.48
2018-09-22T03:44:01.978Z,102128.91
2018-09-22T03:45:02.232Z,102129.36
2018-09-22T03:46:02.484Z,102129.90
2018-09-22T03:47:02.710Z,102130.31
2018-09-22T03:48:03.077Z,102130.42
2018-09-22T03:49:03.277Z,102130.45
2018-09-22T03:50:03.388Z,102130.28
2018-09-22T03:51:03.841Z,102130.81
2018-09-22T03:52:04.135Z,102131.48
2018-09-22T03:53:04.533Z,102132.53
2018-09-22T03:54:05.369Z,102133.20
2018-09-22T03:55:05.681Z,102133.82
2018-09-22T03:56:05.934Z,102134.33
2018-09-22T03:57:06.322Z,102134.77
2018-09-22T03:58:06.578Z,102135.44
2018-09-22T03:58:14.616Z,102141.81
2018-09-22T03:59:15.780Z,102141.41
2018-09-22T04:00:16.097Z,102141.81
2018-09-22T04:01:16.429Z,102141.81
2018-09-22T04:02:16.663Z,102142.31
2018-09-22T04:03:16.881Z,102142.23
2018-09-22T04:04:17.136Z,102141.72
2018-09-22T04:05:17.322Z,102141.30
2018-09-22T04:06:18.170Z,102141.05
2018-09-22T04:07:18.518Z,102141.22
2018-09-22T04:08:18.712Z,102141.22
2018-09-22T04:09:17.902Z,102140.96
2018-09-22T04:10:19.162Z,102140.62
2018-09-22T04:11:19.371Z,102140.45
2018-09-22T04:12:19.582Z,102139.64
2018-09-22T04:13:19.778Z,102139.13
2018-09-22T04:14:20.219Z,102138.80
2018-09-22T04:15:20.458Z,102139.13
2018-09-22T04:16:20.763Z,102139.39
2018-09-22T04:17:21.147Z,102138.71
2018-09-22T04:18:21.358Z,102138.55
2018-09-22T04:19:21.681Z,102138.59
2018-09-22T04:20:21.882Z,102138.09
2018-09-22T04:21:22.099Z,102137.86
2018-09-22T04:22:22.264Z,102137.08
2018-09-22T04:23:22.511Z,102136.31
2018-09-22T04:24:22.946Z,102135.47
2018-09-22T04:25:23.141Z,102134.94
2018-09-22T04:26:23.368Z,102135.28
2018-09-22T04:27:23.710Z,102135.11
2018-09-22T04:28:23.986Z,102134.27
2018-09-22T04:29:24.289Z,102134.34
2018-09-22T04:30:25.041Z,102134.06
2018-09-22T04:31:25.295Z,102133.65
2018-09-22T04:32:25.646Z,102133.65
2018-09-22T04:33:25.935Z,102133.81
2018-09-22T04:34:25.116Z,102133.84
2018-09-22T04:35:26.325Z,102134.27
2018-09-22T04:36:26.777Z,102133.92
2018-09-22T04:37:27.016Z,102134.20
2018-09-22T04:38:27.269Z,102134.20
2018-09-22T04:39:27.469Z,102134.99
2018-09-22T04:40:28.422Z,102135.84
2018-09-22T04:41:28.866Z,102136.00
2018-09-22T04:42:29.096Z,102136.77
2018-09-22T04:43:29.312Z,102137.44
2018-09-22T04:43:37.719Z,102157.14
2018-09-22T04:44:38.973Z,102156.72
2018-09-22T04:45:39.515Z,102156.80
2018-09-22T04:46:40.207Z,102156.30
2018-09-22T04:47:40.459Z,102156.19
2018-09-22T04:48:40.644Z,102156.13
2018-09-22T04:49:40.878Z,102156.80
2018-09-22T04:50:41.104Z,102157.31
2018-09-22T04:51:41.341Z,102158.50
2018-09-22T04:52:41.631Z,102159.77
2018-09-22T04:53:41.865Z,102160.86
2018-09-22T04:54:42.086Z,102162.05
2018-09-22T04:55:42.367Z,102163.64
2018-09-22T04:56:42.602Z,102165.16
2018-09-22T04:57:42.814Z,102166.18
2018-09-22T04:58:42.997Z,102166.77
2018-09-22T04:59:43.321Z,102167.62
2018-09-22T05:00:42.527Z,102168.64
2018-09-22T05:01:43.827Z,102169.99
2018-09-22T05:02:44.246Z,102170.92
2018-09-22T05:03:44.507Z,102172.10
2018-09-22T05:04:44.702Z,102173.28
2018-09-22T05:05:44.951Z,102174.91
2018-09-22T05:06:45.197Z,102175.25
2018-09-22T05:07:45.462Z,102176.01
2018-09-22T05:08:45.737Z,102176.85
2018-09-22T05:09:45.994Z,102177.14
2018-09-22T05:10:46.168Z,102177.72
2018-09-22T05:11:46.400Z,102178.31
2018-09-22T05:12:45.631Z,102178.83
2018-09-22T05:13:46.915Z,102179.89
2018-09-22T05:14:47.169Z,102181.25
2018-09-22T05:15:47.470Z,102182.77
2018-09-22T05:16:47.720Z,102183.87
2018-09-22T05:17:48.094Z,102185.14
2018-09-22T05:18:48.351Z,102186.80
2018-09-22T05:19:48.620Z,102187.98
2018-09-22T05:20:48.865Z,102190.10
2018-09-22T05:21:49.079Z,102192.05
2018-09-22T05:22:49.262Z,102193.15
2018-09-22T05:23:49.693Z,102194.84
2018-09-22T05:24:49.960Z,102196.02
2018-09-22T05:25:49.324Z,102197.20
2018-09-22T05:26:50.529Z,102199.06
2018-09-22T05:27:50.681Z,102201.15
2018-09-22T05:28:50.906Z,102202.61
2018-09-22T05:29:51.118Z,102204.48
2018-09-22T05:29:59.554Z,102235.23
2018-09-22T05:31:00.715Z,102234.98
2018-09-22T05:32:01.001Z,102234.64
2018-09-22T05:33:01.219Z,102233.87
2018-09-22T05:34:01.484Z,102233.23
2018-09-22T05:35:01.861Z,102233.57
2018-09-22T05:36:02.132Z,102233.66
2018-09-22T05:37:02.655Z,102234.16
2018-09-22T05:38:02.909Z,102234.23
2018-09-22T05:39:03.255Z,102234.16
2018-09-22T05:40:03.702Z,102234.66
2018-09-22T05:41:04.130Z,102235.28
2018-09-22T05:42:04.927Z,102235.50
2018-09-22T05:43:05.138Z,102235.59
2018-09-22T05:44:05.468Z,102235.42
2018-09-22T05:45:05.730Z,102235.84
2018-09-22T05:46:06.104Z,102236.11
2018-09-22T05:47:06.266Z,102236.45
2018-09-22T05:48:06.552Z,102237.12
2018-09-22T05:49:07.059Z,102238.02
2018-09-22T05:50:07.282Z,102238.61
2018-09-22T05:51:07.617Z,102239.35
2018-09-22T05:52:07.841Z,102239.70
2018-09-22T05:53:08.302Z,102239.67
2018-09-22T05:54:08.522Z,102239.59
2018-09-22T05:55:08.772Z,102239.84
2018-09-22T05:56:09.402Z,102240.52
2018-09-22T05:57:09.575Z,102240.52
2018-09-22T05:58:09.973Z,102242.12
2018-09-22T05:59:09.204Z,102243.22
2018-09-22T06:00:10.417Z,102244.80
2018-09-22T06:01:10.629Z,102245.81
2018-09-22T06:02:10.856Z,102246.75
2018-09-22T06:03:11.079Z,102247.94
2018-09-22T06:04:11.422Z,102249.18
2018-09-22T06:05:11.642Z,102250.25
2018-09-22T06:06:11.906Z,102251.59
2018-09-22T06:07:12.100Z,102252.16
2018-09-22T06:08:12.389Z,102252.98
2018-09-22T06:09:12.648Z,102253.80
2018-09-22T06:10:12.916Z,102254.43
2018-09-22T06:11:13.176Z,102255.00
2018-09-22T06:12:13.387Z,102255.32
2018-09-22T06:13:13.650Z,102256.23
2018-09-22T06:14:14.049Z,102256.55
2018-09-22T06:14:22.406Z,102267.81
2018-09-22T06:15:23.714Z,102267.89
2018-09-22T06:16:23.941Z,102268.65
2018-09-22T06:17:24.182Z,102269.50
2018-09-22T06:18:24.453Z,102269.33
2018-09-22T06:19:23.801Z,102269.33
2018-09-22T06:20:25.101Z,102269.47
2018-09-22T06:21:25.445Z,102270.07
2018-09-22T06:22:25.649Z,102270.47
2018-09-22T06:23:26.017Z,102270.53
2018-09-22T06:24:25.270Z,102270.45
2018-09-22T06:25:26.493Z,102270.84
2018-09-22T06:26:26.914Z,102271.81
2018-09-22T06:27:27.142Z,102272.55
2018-09-22T06:28:27.416Z,102273.15
2018-09-22T06:29:27.759Z,102274.22
2018-09-22T06:30:28.217Z,102274.88
2018-09-22T06:31:28.567Z,102275.21
2018-09-22T06:32:28.874Z,102274.88
2018-09-22T06:33:29.144Z,102274.88
2018-09-22T06:34:29.468Z,102274.45
2018-09-22T06:35:29.825Z,102274.29
2018-09-22T06:36:30.276Z,102274.26
2018-09-22T06:37:30.716Z,102274.18
2018-09-22T06:38:30.043Z,102274.16
2018-09-22T06:39:31.423Z,102273.64
2018-09-22T06:40:31.891Z,102273.98
2018-09-22T06:41:32.302Z,102274.49
2018-09-22T06:42:32.648Z,102274.80
2018-09-22T06:43:32.855Z,102276.16
2018-09-22T06:44:33.181Z,102276.81
2018-09-22T06:45:33.336Z,102277.63
2018-09-22T06:46:33.639Z,102278.45
2018-09-22T06:47:33.961Z,102279.05
2018-09-22T06:48:34.197Z,102278.95
2018-09-22T06:49:34.481Z,102278.84
2018-09-22T06:50:34.783Z,102278.30
2018-09-22T06:51:34.971Z,102277.72
2018-09-22T06:52:35.249Z,102277.34
2018-09-22T06:53:35.451Z,102277.58
2018-09-22T06:54:35.689Z,102277.16
2018-09-22T06:55:35.902Z,102277.33
2018-09-22T06:56:36.123Z,102277.22
2018-09-22T06:57:36.598Z,102276.35
2018-09-22T06:58:37.002Z,102275.31
2018-09-22T06:59:37.309Z,102274.19
2018-09-22T07:00:37.587Z,102273.43
2018-09-22T07:00:45.983Z,102254.66
2018-09-22T07:01:46.659Z,102254.06
2018-09-22T07:02:47.133Z,102253.67
2018-09-22T07:03:47.392Z,102252.31
2018-09-22T07:04:47.749Z,102251.64
2018-09-22T07:05:48.047Z,102251.14
2018-09-22T07:06:48.488Z,102250.97
2018-09-22T07:07:48.786Z,102250.68
2018-09-22T07:08:49.207Z,102251.16
2018-09-22T07:09:49.491Z,102250.63
2018-09-22T07:10:49.761Z,102250.78
2018-09-22T07:11:49.999Z,102250.67
2018-09-22T07:12:50.581Z,102250.63
2018-09-22T07:13:51.557Z,102250.66
2018-09-22T07:14:50.685Z,102250.27
2018-09-22T07:15:52.059Z,102250.05
2018-09-22T07:16:52.297Z,102249.91
2018-09-22T07:17:52.754Z,102249.95
2018-09-22T07:18:53.230Z,102250.19
2018-09-22T07:19:53.504Z,102250.09
2018-09-22T07:20:54.072Z,102250.56
2018-09-22T07:21:54.467Z,102251.02
2018-09-22T07:22:54.672Z,102251.90
2018-09-22T07:23:55.216Z,102253.66
2018-09-22T07:24:55.492Z,102254.80
2018-09-22T07:25:55.946Z,102256.09
2018-09-22T07:26:56.255Z,102257.32
2018-09-22T07:27:56.511Z,102258.09
2018-09-22T07:28:56.967Z,102259.05
2018-09-22T07:29:57.345Z,102260.86
2018-09-22T07:30:57.807Z,102261.55
2018-09-22T07:31:56.875Z,102262.85
2018-09-22T07:32:57.156Z,102263.87
2018-09-22T07:33:58.334Z,102264.41
2018-09-22T07:34:58.481Z,102265.18
2018-09-22T07:35:58.756Z,102265.95
2018-09-22T07:36:58.922Z,102266.75
2018-09-22T07:37:59.083Z,102267.84
2018-09-22T07:38:59.398Z,102268.28
2018-09-22T07:39:59.686Z,102269.10
2018-09-22T07:40:59.924Z,102269.73
2018-09-22T07:42:00.218Z,102269.88
2018-09-22T07:42:59.475Z,102270.31
2018-09-22T07:44:00.710Z,102270.73
2018-09-22T07:45:00.897Z,102271.31
2018-09-22T07:46:01.082Z,102271.26
2018-09-22T07:46:09.552Z,102271.34
2018-09-22T07:47:10.672Z,102271.34
2018-09-22T07:48:10.962Z,102271.31
2018-09-22T07:49:11.165Z,102271.77
2018-09-22T07:50:11.389Z,102271.64
2018-09-22T07:51:11.706Z,102271.56
2018-09-22T07:52:12.096Z,102271.97
2018-09-22T07:53:12.515Z,102272.12
2018-09-22T07:54:12.686Z,102272.64
2018-09-22T07:55:12.986Z,102273.55
2018-09-22T07:56:13.451Z,102274.37
2018-09-22T07:57:13.722Z,102275.31
2018-09-22T07:58:13.297Z,102276.98
2018-09-22T07:59:14.566Z,102277.81
2018-09-22T08:00:14.764Z,102279.87
2018-09-22T08:01:15.124Z,102281.16
2018-09-22T08:02:15.396Z,102283.58
2018-09-22T08:03:15.950Z,102284.70
2018-09-22T08:04:16.913Z,102286.85
2018-09-22T08:05:17.387Z,102288.19
2018-09-22T08:06:17.632Z,102289.05
2018-09-22T08:07:17.924Z,102290.22
2018-09-22T08:08:18.139Z,102290.77
2018-09-22T08:09:18.578Z,102290.91
2018-09-22T08:10:18.865Z,102291.68
2018-09-22T08:11:19.139Z,102291.80
2018-09-22T08:12:19.326Z,102292.44
2018-09-22T08:13:19.671Z,102293.61
2018-09-22T08:14:20.170Z,102294.25
2018-09-22T08:15:20.408Z,102294.80
2018-09-22T08:16:20.852Z,102294.56
2018-09-22T08:17:21.142Z,102294.55
2018-09-22T08:18:21.564Z,102294.70
2018-09-22T08:19:21.836Z,102293.95
2018-09-22T08:20:22.090Z,102294.01
2018-09-22T08:21:22.539Z,102294.22
2018-09-22T08:22:22.813Z,102293.94
2018-09-22T08:23:23.157Z,102293.67
2018-09-22T08:24:23.686Z,102294.73
2018-09-22T08:25:24.094Z,102295.02
2018-09-22T08:26:24.012Z,102295.56
2018-09-22T08:27:25.382Z,102295.92
2018-09-22T08:28:25.636Z,102295.66
2018-09-22T08:29:26.211Z,102295.27
2018-09-22T08:30:26.561Z,102293.77
2018-09-22T08:31:25.701Z,102293.14
2018-09-22T08:32:26.944Z,102291.63
2018-09-22T08:32:35.287Z,102292.41
2018-09-22T08:33:36.504Z,102291.55
2018-09-22T08:34:36.780Z,102290.77
2018-09-22T08:35:37.033Z,102290.09
2018-09-22T08:36:37.544Z,102289.13
2018-09-22T08:37:36.510Z,102288.38
2018-09-22T08:38:37.784Z,102287.64
2018-09-22T08:39:38.486Z,102287.27
2018-09-22T08:40:38.949Z,102287.34
2018-09-22T08:41:39.219Z,102287.76
2018-09-22T08:42:39.717Z,102289.00
2018-09-22T08:43:40.669Z,102289.65
2018-09-22T08:44:40.155Z,102290.80
2018-09-22T08:45:41.505Z,102291.95
2018-09-22T08:46:41.833Z,102293.23
2018-09-22T08:47:41.683Z,102294.17
2018-09-22T08:48:42.110Z,102294.84
2018-09-22T08:49:43.537Z,102295.17
2018-09-22T08:50:43.100Z,102295.80
2018-09-22T08:51:44.438Z,102297.06
2018-09-22T08:52:43.882Z,102297.65
2018-09-22T08:53:45.207Z,102297.63
2018-09-22T08:54:45.805Z,102297.44
2018-09-22T08:55:45.896Z,102297.55
2018-09-22T08:56:46.519Z,102297.83
2018-09-22T08:57:45.992Z,102298.28
2018-09-22T08:58:46.923Z,102298.13
2018-09-22T08:59:47.573Z,102297.60
2018-09-22T09:00:47.953Z,102297.38
2018-09-22T09:01:48.016Z,102296.05
2018-09-22T09:02:49.624Z,102293.83
2018-09-22T09:03:50.364Z,102291.45
2018-09-22T09:04:49.396Z,102289.61
2018-09-22T09:05:50.152Z,102288.30
2018-09-22T09:06:50.511Z,102286.52
2018-09-22T09:07:51.767Z,102285.06
2018-09-22T09:08:52.526Z,102283.49
2018-09-22T09:09:52.760Z,102282.17
2018-09-22T09:10:53.107Z,102281.03
2018-09-22T09:11:53.393Z,102280.56
2018-09-22T09:12:53.711Z,102279.50
2018-09-22T09:13:53.902Z,102278.31
2018-09-22T09:14:54.163Z,102277.34
2018-09-22T09:15:54.467Z,102276.27
2018-09-22T09:16:54.778Z,102275.50
2018-09-22T09:17:55.586Z,102274.40
2018-09-22T09:18:55.835Z,102273.33
2018-09-22T09:19:56.310Z,102272.60
2018-09-22T09:20:56.675Z,102271.92
2018-09-22T09:21:55.913Z,102270.94
2018-09-22T09:22:57.132Z,102270.81
2018-09-22T09:23:57.338Z,102270.37
2018-09-22T09:24:57.681Z,102270.29
2018-09-22T09:25:58.032Z,102270.16
2018-09-22T09:26:06.389Z,102260.32
2018-09-22T09:27:07.669Z,102259.98
2018-09-22T09:28:08.013Z,102259.26
2018-09-22T09:29:08.229Z,102258.75
2018-09-22T09:30:08.463Z,102258.70
2018-09-22T09:31:08.670Z,102258.23
2018-09-22T09:32:08.887Z,102257.78
2018-09-22T09:33:09.121Z,102257.33
2018-09-22T09:34:10.444Z,102256.78
2018-09-22T09:35:09.768Z,102256.11
2018-09-22T09:36:10.053Z,102255.23
2018-09-22T09:37:10.298Z,102254.19
2018-09-22T09:38:10.613Z,102252.88
2018-09-22T09:39:10.832Z,102250.95
2018-09-22T09:40:11.361Z,102250.20
2018-09-22T09:41:11.595Z,102249.05
2018-09-22T09:42:11.839Z,102248.30
2018-09-22T09:43:12.115Z,102247.66
2018-09-22T09:44:11.449Z,102246.31
2018-09-22T09:45:12.663Z,102244.91
2018-09-22T09:46:12.748Z,102243.55
2018-09-22T09:47:13.007Z,102242.63
2018-09-22T09:48:13.204Z,102241.22
2018-09-22T09:49:13.490Z,102240.55
2018-09-22T09:50:13.727Z,102239.23
2018-09-22T09:51:14.212Z,102237.23
2018-09-22T09:52:14.445Z,102235.48
2018-09-22T09:53:14.748Z,102234.06
2018-09-22T09:54:15.127Z,102232.58
2018-09-22T09:55:15.573Z,102231.55
2018-09-22T09:56:15.846Z,102230.86
2018-09-22T09:57:16.060Z,102230.43
2018-09-22T09:58:16.315Z,102229.61
2018-09-22T09:59:16.651Z,102229.44
2018-09-22T10:00:16.875Z,102228.70
2018-09-22T10:01:17.171Z,102227.76
2018-09-22T10:02:17.381Z,102226.81
2018-09-22T10:03:17.864Z,102225.98
2018-09-22T10:04:18.063Z,102225.20
2018-09-22T10:05:18.294Z,102224.17
2018-09-22T10:06:18.769Z,102223.04
2018-09-22T10:07:19.106Z,102221.53
2018-09-22T10:08:19.285Z,102220.79
2018-09-22T10:09:19.527Z,102219.11
2018-09-22T10:10:19.792Z,102218.41
2018-09-22T10:11:20.004Z,102217.16
2018-09-22T10:11:28.332Z,102205.12
2018-09-22T10:12:29.566Z,102204.53
2018-09-22T10:13:29.752Z,102204.23
2018-09-22T10:14:29.907Z,102203.86
2018-09-22T10:15:30.248Z,102203.11
2018-09-22T10:16:30.514Z,102202.10
2018-09-22T10:17:30.726Z,102201.26
2018-09-22T10:18:30.982Z,102200.67
2018-09-22T10:19:31.304Z,102199.23
2018-09-22T10:20:31.725Z,102197.31
2018-09-22T10:21:30.767Z,102196.92
2018-09-22T10:22:32.062Z,102195.48
2018-09-22T10:23:32.383Z,102194.57
2018-09-22T10:24:32.754Z,102192.67
2018-09-22T10:25:33.090Z,102191.03
2018-09-22T10:26:33.334Z,102189.27
2018-09-22T10:27:33.617Z,102187.55
2018-09-22T10:28:33.928Z,102186.37
2018-09-22T10:29:33.227Z,102185.32
2018-09-22T10:30:34.748Z,102184.65
2018-09-22T10:31:35.208Z,102183.72
2018-09-22T10:32:35.435Z,102182.87
2018-09-22T10:33:35.759Z,102181.81
2018-09-22T10:34:36.050Z,102181.17
2018-09-22T10:35:36.297Z,102180.85
2018-09-22T10:36:37.564Z,102179.95
2018-09-22T10:37:37.525Z,102179.72
2018-09-22T10:38:37.874Z,102179.21
2018-09-22T10:39:38.182Z,102178.60
2018-09-22T10:40:37.427Z,102177.18
2018-09-22T10:41:38.670Z,102176.48
2018-09-22T10:42:38.881Z,102176.16
2018-09-22T10:43:39.398Z,102176.56
2018-09-22T10:44:39.553Z,102176.41
2018-09-22T10:45:39.811Z,102175.92
2018-09-22T10:46:40.178Z,102175.30
2018-09-22T10:47:40.543Z,102174.33
2018-09-22T10:48:40.707Z,102173.37
2018-09-22T10:49:40.930Z,102173.05
2018-09-22T10:50:41.177Z,102172.17
2018-09-22T10:51:41.464Z,102172.19
2018-09-22T10:52:41.687Z,102172.16
2018-09-22T10:53:41.193Z,102171.55
2018-09-22T10:54:42.448Z,102170.88
2018-09-22T10:55:42.722Z,102170.13
2018-09-22T10:56:42.923Z,102168.64
2018-09-22T10:57:43.049Z,102168.31
2018-09-22T10:58:43.301Z,102166.83
2018-09-22T10:58:58.416Z,102151.38
2018-09-22T10:59:58.627Z,102150.44
2018-09-22T11:00:58.974Z,102150.14
2018-09-22T11:01:59.296Z,102149.34
2018-09-22T11:02:59.605Z,102149.60
2018-09-22T11:03:59.911Z,102148.87
2018-09-22T11:05:00.127Z,102148.97
2018-09-22T11:06:00.337Z,102148.91
2018-09-22T11:07:00.710Z,102148.50
2018-09-22T11:08:00.909Z,102148.47
2018-09-22T11:09:01.120Z,102149.06
2018-09-22T11:10:01.359Z,102148.57
2018-09-22T11:11:01.652Z,102149.09
2018-09-22T11:12:01.876Z,102149.22
2018-09-22T11:13:02.118Z,102148.71
2018-09-22T11:14:02.292Z,102147.98
2018-09-22T11:15:02.582Z,102147.72